createdAt,value
2023-04-23T00:03:33.574Z,43.60
2023-04-23T00:08:42.013Z,43.62
2023-04-23T00:13:47.747Z,43.71
2023-04-23T00:18:51.474Z,43.59
2023-04-23T00:23:55.087Z,43.89
2023-04-23T00:28:58.398Z,43.88
2023-04-23T00:34:01.913Z,44.38
2023-04-23T00:39:05.336Z,44.92
2023-04-23T00:44:13.414Z,45.14
2023-04-23T00:49:17.655Z,45.34
2023-04-23T00:54:20.994Z,45.29
2023-04-23T00:59:28.191Z,45.59
2023-04-23T01:04:32.845Z,45.25
2023-04-23T01:09:36.355Z,45.25
2023-04-23T01:14:40.231Z,45.32
2023-04-23T01:19:43.900Z,45.34
2023-04-23T01:24:48.132Z,45.28
2023-04-23T01:29:52.462Z,46.02
2023-04-23T01:34:57.211Z,45.79
2023-04-23T01:40:01.441Z,45.71
2023-04-23T01:45:05.161Z,46.07
2023-04-23T01:50:09.848Z,46.61
2023-04-23T01:55:14.440Z,46.65
2023-04-23T02:00:18.429Z,46.68
2023-04-23T02:05:22.000Z,46.96
2023-04-23T02:10:26.164Z,47.18
2023-04-23T02:15:40.981Z,47.32
2023-04-23T02:20:44.826Z,47.78
2023-04-23T02:25:48.135Z,47.75
2023-04-23T02:30:51.651Z,47.48
2023-04-23T02:35:55.164Z,47.36
2023-04-23T02:40:58.700Z,47.57
2023-04-23T02:46:08.722Z,47.48
2023-04-23T02:51:14.004Z,47.63
2023-04-23T02:56:17.412Z,47.78
2023-04-23T03:01:21.285Z,48.18
2023-04-23T03:06:25.266Z,47.98
2023-04-23T03:11:28.688Z,48.16
2023-04-23T03:16:32.644Z,48.10
2023-04-23T03:21:36.123Z,48.43
2023-04-23T03:26:39.533Z,48.64
2023-04-23T03:31:42.948Z,48.95
2023-04-23T03:36:48.923Z,49.49
2023-04-23T03:41:52.435Z,49.33
2023-04-23T03:46:55.848Z,49.77
2023-04-23T03:51:59.577Z,49.87
2023-04-23T03:57:03.905Z,50.02
2023-04-23T04:02:07.481Z,50.02
2023-04-23T04:07:12.376Z,50.30
2023-04-23T04:12:16.812Z,50.23
2023-04-23T04:17:20.261Z,50.31
2023-04-23T04:22:24.455Z,50.14
2023-04-23T04:27:27.987Z,50.74
2023-04-23T04:32:32.623Z,50.74
2023-04-23T04:37:36.506Z,50.62
2023-04-23T04:42:39.847Z,50.44
2023-04-23T04:47:43.377Z,50.60
2023-04-23T04:52:46.987Z,50.86
2023-04-23T04:57:50.498Z,50.74
2023-04-23T05:02:54.740Z,50.86
2023-04-23T05:08:02.550Z,50.77
2023-04-23T05:13:06.262Z,50.92
2023-04-23T05:18:11.105Z,50.58
2023-04-23T05:23:14.565Z,50.59
2023-04-23T05:28:18.359Z,50.21
2023-04-23T05:33:21.766Z,50.64
2023-04-23T05:38:25.559Z,49.83
2023-04-23T05:43:29.089Z,49.80
2023-04-23T05:48:32.611Z,49.72
2023-04-23T05:53:36.120Z,49.27
2023-04-23T05:58:39.528Z,49.06
2023-04-23T06:03:45.854Z,49.10
2023-04-23T06:08:51.266Z,49.13
2023-04-23T06:13:54.582Z,48.92
2023-04-23T06:18:58.324Z,48.70
2023-04-23T06:24:01.831Z,48.43
2023-04-23T06:29:05.228Z,48.27
2023-04-23T06:34:08.774Z,48.02
2023-04-23T06:39:12.256Z,47.56
2023-04-23T06:44:15.873Z,47.22
2023-04-23T06:49:21.200Z,47.04
2023-04-23T06:54:25.161Z,46.37
2023-04-23T06:59:28.775Z,46.34
2023-04-23T07:04:33.656Z,45.90
2023-04-23T07:09:37.046Z,45.97
2023-04-23T07:14:40.918Z,45.57
2023-04-23T07:19:44.290Z,44.96
2023-04-23T07:24:47.818Z,44.69
2023-04-23T07:29:51.429Z,44.31
2023-04-23T07:34:56.490Z,43.53
2023-04-23T07:40:01.075Z,43.24
2023-04-23T07:45:06.117Z,42.35
2023-04-23T07:50:10.497Z,41.73
2023-04-23T07:55:13.857Z,41.23
2023-04-23T08:00:17.538Z,41.15
2023-04-23T08:05:21.329Z,40.95
2023-04-23T08:10:24.669Z,40.48
2023-04-23T08:15:28.194Z,40.03
2023-04-23T08:20:32.660Z,39.80
2023-04-23T08:25:36.035Z,39.45
2023-04-23T08:30:39.858Z,39.21
2023-04-23T08:35:43.377Z,39.10
2023-04-23T08:40:49.142Z,38.59
2023-04-23T08:45:54.409Z,38.49
2023-04-23T08:50:59.659Z,38.32
2023-04-23T08:56:04.093Z,38.19
2023-04-23T09:01:08.339Z,37.56
2023-04-23T09:06:12.565Z,37.29
2023-04-23T09:11:17.518Z,36.98
2023-04-23T09:16:20.984Z,36.38
2023-04-23T09:21:24.640Z,36.01
2023-04-23T09:26:28.361Z,36.22
2023-04-23T09:31:31.810Z,35.53
2023-04-23T09:36:37.537Z,35.28
2023-04-23T09:41:41.570Z,34.59
2023-04-23T09:46:45.296Z,34.25
2023-04-23T09:51:50.145Z,33.66
2023-04-23T09:57:01.227Z,33.53
2023-04-23T10:02:07.165Z,33.24
2023-04-23T10:12:40.977Z,32.82
2023-04-23T10:17:47.045Z,32.60
2023-04-23T10:22:52.605Z,32.76
2023-04-23T10:27:58.796Z,32.44
2023-04-23T10:33:06.045Z,32.23
2023-04-23T10:39:00.486Z,32.12
2023-04-23T10:44:07.455Z,31.91
2023-04-23T10:49:11.003Z,31.95
2023-04-23T10:54:15.901Z,31.93
2023-04-23T10:59:23.040Z,31.72
2023-04-23T11:04:29.564Z,31.70
2023-04-23T11:09:49.860Z,30.93
2023-04-23T11:14:59.745Z,30.81
2023-04-23T11:20:11.929Z,30.79
2023-04-23T11:25:20.079Z,30.68
2023-04-23T11:30:26.396Z,30.52
2023-04-23T11:35:32.310Z,30.40
2023-04-23T11:40:36.046Z,30.25
2023-04-23T11:45:39.513Z,30.05
2023-04-23T11:50:42.967Z,30.00
2023-04-23T11:55:49.551Z,30.32
2023-04-23T12:00:59.632Z,29.96
2023-04-23T12:06:03.026Z,29.72
2023-04-23T12:11:07.366Z,29.62
2023-04-23T12:16:11.173Z,29.59
2023-04-23T12:21:15.206Z,29.26
2023-04-23T12:26:20.527Z,28.88
2023-04-23T12:31:27.966Z,28.96
2023-04-23T12:36:32.192Z,28.70
2023-04-23T12:41:35.642Z,28.76
2023-04-23T12:46:39.365Z,28.60
2023-04-23T12:51:42.859Z,28.43
2023-04-23T12:56:46.281Z,28.10
2023-04-23T13:01:51.488Z,28.26
2023-04-23T13:06:55.253Z,28.08
2023-04-23T13:12:00.613Z,28.09
2023-04-23T13:17:04.427Z,27.97
2023-04-23T13:22:08.046Z,27.61
2023-04-23T13:27:11.763Z,27.42
2023-04-23T13:32:16.622Z,27.40
2023-04-23T13:37:20.129Z,27.24
2023-04-23T13:42:23.652Z,27.22
2023-04-23T13:47:31.835Z,27.04
2023-04-23T13:52:37.652Z,27.11
2023-04-23T13:57:41.156Z,27.00
2023-04-23T14:02:44.651Z,26.76
2023-04-23T14:07:48.697Z,26.21
2023-04-23T14:12:52.120Z,25.92
2023-04-23T14:17:56.566Z,25.44
2023-04-23T14:23:12.046Z,24.54
2023-04-23T14:28:29.588Z,22.78
2023-04-23T14:33:33.418Z,22.18
2023-04-23T14:38:36.832Z,22.31
2023-04-23T14:43:40.443Z,20.89
2023-04-23T14:48:43.969Z,19.36
2023-04-23T14:53:47.266Z,18.11
2023-04-23T14:58:50.677Z,16.52
2023-04-23T15:03:54.361Z,15.40
2023-04-23T15:08:57.911Z,14.16
2023-04-23T15:14:21.394Z,13.63
2023-04-23T15:19:25.010Z,12.81
2023-04-23T15:24:28.589Z,12.02
2023-04-23T15:29:31.845Z,11.86
2023-04-23T15:34:35.316Z,11.27
2023-04-23T15:39:38.845Z,11.07
2023-04-23T15:44:42.497Z,11.15
2023-04-23T15:49:46.730Z,10.17
2023-04-23T15:54:50.244Z,10.30
2023-04-23T15:59:55.907Z,10.00
2023-04-23T16:04:59.260Z,9.76
2023-04-23T16:10:02.832Z,9.77
2023-04-23T16:15:06.735Z,10.04
2023-04-23T16:20:10.687Z,9.93
2023-04-23T16:25:14.105Z,9.99
2023-04-23T16:30:17.625Z,10.03
2023-04-23T16:35:21.134Z,10.20
2023-04-23T16:40:24.551Z,10.38
2023-04-23T16:45:28.261Z,10.48
2023-04-23T16:50:31.888Z,10.89
2023-04-23T16:55:38.468Z,11.51
2023-04-23T17:00:41.885Z,11.89
2023-04-23T17:05:49.591Z,12.31
2023-04-23T17:10:53.716Z,12.99
2023-04-23T17:15:58.283Z,13.67
2023-04-23T17:21:01.798Z,14.73
2023-04-23T17:26:06.464Z,15.66
2023-04-23T17:31:10.004Z,16.59
2023-04-23T17:36:13.555Z,17.41
2023-04-23T17:41:17.901Z,18.22
2023-04-23T17:46:21.663Z,18.99
2023-04-23T17:59:49.688Z,21.85
2023-04-23T18:05:21.605Z,22.31
2023-04-23T18:10:28.626Z,23.02
2023-04-23T18:15:31.941Z,23.42
2023-04-23T18:21:19.341Z,24.25
2023-04-23T18:26:42.371Z,24.75
2023-04-23T18:32:27.562Z,25.28
2023-04-23T18:38:09.238Z,27.51
2023-04-23T18:43:55.890Z,28.04
2023-04-23T18:49:32.428Z,28.56
2023-04-23T18:54:35.511Z,28.81
2023-04-23T19:00:16.367Z,29.75
2023-04-23T19:06:02.099Z,30.75
2023-04-23T19:12:15.779Z,30.96
2023-04-23T19:17:50.905Z,31.26
2023-04-23T19:22:53.332Z,31.85
2023-04-23T19:28:06.247Z,32.06
2023-04-23T19:33:16.242Z,32.48
2023-04-23T19:38:27.599Z,32.92
2023-04-23T19:43:30.004Z,33.00
2023-04-23T19:48:34.362Z,33.75
2023-04-23T19:53:45.868Z,34.28
2023-04-23T19:58:51.097Z,34.59
2023-04-23T20:04:11.383Z,34.77
2023-04-23T20:09:24.078Z,35.55
2023-04-23T20:14:39.329Z,35.71
2023-04-23T20:19:46.178Z,36.12
2023-04-23T20:25:01.487Z,36.41
2023-04-23T20:30:17.175Z,36.78
2023-04-23T20:35:28.119Z,36.48
2023-04-23T20:40:46.460Z,36.88
2023-04-23T20:46:04.166Z,37.15
2023-04-23T20:51:07.413Z,37.54
2023-04-23T20:56:14.983Z,37.69
2023-04-23T21:01:31.282Z,37.90
2023-04-23T21:06:48.299Z,38.07
2023-04-23T21:11:50.710Z,38.68
2023-04-23T21:17:07.508Z,39.13
2023-04-23T21:22:09.568Z,39.93
2023-04-23T21:27:20.928Z,39.76
2023-04-23T21:32:36.301Z,40.08
2023-04-23T21:37:38.307Z,40.40
2023-04-23T21:42:47.141Z,40.49
2023-04-23T21:48:05.576Z,40.99
2023-04-23T21:53:28.641Z,41.16
2023-04-23T21:58:40.516Z,41.74
2023-04-23T22:03:49.826Z,41.88
2023-04-23T22:09:29.453Z,42.18
2023-04-23T22:14:31.728Z,42.73
2023-04-23T22:19:40.097Z,42.61
2023-04-23T22:27:17.381Z,43.32
2023-04-23T22:32:20.948Z,43.59
2023-04-23T22:37:25.017Z,43.67
2023-04-23T22:42:28.332Z,43.88
2023-04-23T22:47:32.207Z,44.36
2023-04-23T22:52:35.787Z,44.52
2023-04-23T22:57:39.492Z,44.59
2023-04-23T23:02:42.985Z,44.49
2023-04-23T23:07:46.521Z,44.89
2023-04-23T23:12:50.035Z,45.04
2023-04-23T23:17:54.172Z,45.22
2023-04-23T23:22:57.892Z,45.67
2023-04-23T23:28:01.504Z,45.96
2023-04-23T23:33:05.580Z,45.99
2023-04-23T23:38:09.357Z,46.25
2023-04-23T23:43:12.767Z,46.72
2023-04-23T23:48:16.387Z,46.87
2023-04-23T23:53:19.801Z,46.96
2023-04-23T23:58:23.417Z,47.39
